createdAt,value
2018-10-15T00:00:25.057Z,16.58
2018-10-15T00:01:24.686Z,16.54
2018-10-15T00:02:24.437Z,16.56
2018-10-15T00:03:24.454Z,16.54
2018-10-15T00:04:24.468Z,16.64
2018-10-15T00:05:24.715Z,16.53
2018-10-15T00:06:24.720Z,16.56
2018-10-15T00:07:24.472Z,16.56
2018-10-15T00:08:24.287Z,16.5
2018-10-15T00:09:24.749Z,16.54
2018-10-15T00:10:24.753Z,16.46
2018-10-15T00:11:24.754Z,16.47
2018-10-15T00:12:24.507Z,16.57
2018-10-15T00:13:24.766Z,16.57
2018-10-15T00:14:24.778Z,16.46
2018-10-15T00:15:24.833Z,16.5
2018-10-15T00:16:24.797Z,16.43
2018-10-15T00:17:24.803Z,16.5
2018-10-15T00:18:24.599Z,16.39
2018-10-15T00:19:24.806Z,16.47
2018-10-15T00:20:24.813Z,16.46
2018-10-15T00:21:24.570Z,16.42
2018-10-15T00:22:24.576Z,16.39
2018-10-15T00:23:24.631Z,16.39
2018-10-15T00:24:24.838Z,16.24
2018-10-15T00:25:24.597Z,16.24
2018-10-15T00:26:24.603Z,16.21
2018-10-15T00:27:24.605Z,16.24
2018-10-15T00:28:24.610Z,16.1
2018-10-15T00:29:24.872Z,16.1
2018-10-15T00:30:24.877Z,16
2018-10-15T00:31:24.894Z,16.09
2018-10-15T00:32:24.634Z,16.12
2018-10-15T00:33:24.901Z,16.12
2018-10-15T00:34:24.898Z,16.1
2018-10-15T00:35:24.916Z,16.13
2018-10-15T00:36:24.916Z,16.12
2018-10-15T00:37:24.924Z,16.13
2018-10-15T00:38:24.984Z,16.12
2018-10-15T00:39:24.993Z,16.1
2018-10-15T00:40:24.952Z,16.08
2018-10-15T00:41:24.947Z,15.98
2018-10-15T00:42:24.715Z,16.05
2018-10-15T00:43:24.715Z,15.95
2018-10-15T00:44:24.721Z,16.04
2018-10-15T00:45:24.469Z,16.09
2018-10-15T00:46:24.980Z,16.08
2018-10-15T00:47:24.733Z,15.98
2018-10-15T00:48:24.743Z,16.08
2018-10-15T00:49:25.004Z,16
2018-10-15T00:50:25.013Z,15.9
2018-10-15T00:51:25.016Z,15.9
2018-10-15T00:52:24.775Z,15.92
2018-10-15T00:53:25.126Z,15.91
2018-10-15T00:54:25.032Z,15.9
2018-10-15T00:55:24.784Z,15.92
2018-10-15T00:56:24.792Z,15.88
2018-10-15T00:57:25.056Z,15.91
2018-10-15T00:58:25.074Z,15.8
2018-10-15T00:59:25.072Z,15.82
2018-10-15T01:00:24.821Z,15.82
2018-10-15T01:01:25.074Z,15.79
2018-10-15T01:02:25.093Z,15.77
2018-10-15T01:03:25.068Z,15.77
2018-10-15T01:04:25.073Z,15.73
2018-10-15T01:05:24.850Z,15.83
2018-10-15T01:06:25.096Z,15.79
2018-10-15T01:07:25.090Z,15.73
2018-10-15T01:08:25.148Z,15.77
2018-10-15T01:09:25.100Z,15.79
2018-10-15T01:10:24.860Z,15.77
2018-10-15T01:11:25.116Z,15.65
2018-10-15T01:12:25.129Z,15.7
2018-10-15T01:13:25.138Z,15.7
2018-10-15T01:14:25.148Z,15.67
2018-10-15T01:15:25.148Z,15.52
2018-10-15T01:16:25.169Z,15.52
2018-10-15T01:17:25.187Z,15.51
2018-10-15T01:18:25.183Z,15.51
2018-10-15T01:19:25.458Z,15.4
2018-10-15T01:20:24.938Z,15.43
2018-10-15T01:21:25.197Z,15.33
2018-10-15T01:22:24.956Z,15.22
2018-10-15T01:23:25.001Z,15.24
2018-10-15T01:24:24.960Z,15.27
2018-10-15T01:25:24.961Z,15.18
2018-10-15T01:26:24.720Z,15.21
2018-10-15T01:27:24.987Z,15.18
2018-10-15T01:28:25.283Z,15.19
2018-10-15T01:29:25.287Z,15.22
2018-10-15T01:30:24.743Z,15.22
2018-10-15T01:31:25.007Z,15.19
2018-10-15T01:32:25.013Z,15.15
2018-10-15T01:33:25.018Z,15.18
2018-10-15T01:34:25.033Z,15.15
2018-10-15T01:35:25.279Z,15.15
2018-10-15T01:36:25.290Z,15.06
2018-10-15T01:37:25.041Z,15.04
2018-10-15T01:38:26.303Z,15.02
2018-10-15T01:39:25.064Z,15.1
2018-10-15T01:40:25.306Z,14.97
2018-10-15T01:41:25.315Z,15
2018-10-15T01:42:25.322Z,15.06
2018-10-15T01:43:25.127Z,15.02
2018-10-15T01:44:25.085Z,14.92
2018-10-15T01:45:25.112Z,14.97
2018-10-15T01:46:25.358Z,14.91
2018-10-15T01:47:25.354Z,14.91
2018-10-15T01:48:25.355Z,14.92
2018-10-15T01:49:25.397Z,14.96
2018-10-15T01:50:25.367Z,14.88
2018-10-15T01:51:25.375Z,14.89
2018-10-15T01:52:24.870Z,14.91
2018-10-15T01:53:25.433Z,14.81
2018-10-15T01:54:25.397Z,14.88
2018-10-15T01:55:25.400Z,14.82
2018-10-15T01:56:25.399Z,14.85
2018-10-15T01:57:25.157Z,14.81
2018-10-15T01:58:25.417Z,14.84
2018-10-15T01:59:25.417Z,14.78
2018-10-15T02:00:25.178Z,14.79
2018-10-15T02:01:25.435Z,14.79
2018-10-15T02:02:25.186Z,14.68
2018-10-15T02:03:25.448Z,14.84
2018-10-15T02:04:25.203Z,14.84
2018-10-15T02:05:25.461Z,14.82
2018-10-15T02:06:25.206Z,14.72
2018-10-15T02:07:25.213Z,14.73
2018-10-15T02:08:25.522Z,14.69
2018-10-15T02:09:25.480Z,14.78
2018-10-15T02:10:25.485Z,14.78
2018-10-15T02:11:25.236Z,14.66
2018-10-15T02:12:25.241Z,14.6
2018-10-15T02:13:25.498Z,14.69
2018-10-15T02:14:25.506Z,14.7
2018-10-15T02:15:25.259Z,14.62
2018-10-15T02:16:25.260Z,14.63
2018-10-15T02:17:25.527Z,14.58
2018-10-15T02:18:25.272Z,14.65
2018-10-15T02:19:25.529Z,14.72
2018-10-15T02:20:25.534Z,14.62
2018-10-15T02:21:25.543Z,14.59
2018-10-15T02:22:25.299Z,14.59
2018-10-15T02:23:25.634Z,14.62
2018-10-15T02:24:25.557Z,14.62
2018-10-15T02:25:25.565Z,14.62
2018-10-15T02:26:25.314Z,14.62
2018-10-15T02:27:25.327Z,14.65
2018-10-15T02:28:25.327Z,14.59
2018-10-15T02:29:25.588Z,14.51
2018-10-15T02:30:25.600Z,14.54
2018-10-15T02:31:25.697Z,14.48
2018-10-15T02:32:25.604Z,14.37
2018-10-15T02:33:25.352Z,14.36
2018-10-15T02:34:25.613Z,14.35
2018-10-15T02:35:25.621Z,14.37
2018-10-15T02:36:25.366Z,14.36
2018-10-15T02:37:25.630Z,14.3
2018-10-15T02:38:25.693Z,14.25
2018-10-15T02:39:25.443Z,14.2
2018-10-15T02:40:25.389Z,14.12
2018-10-15T02:41:25.649Z,14.17
2018-10-15T02:42:25.654Z,14.23
2018-10-15T02:43:25.675Z,14.2
2018-10-15T02:44:25.415Z,14.28
2018-10-15T02:45:25.707Z,14.22
2018-10-15T02:46:25.428Z,14.2
2018-10-15T02:47:25.739Z,14.22
2018-10-15T02:48:25.438Z,14.18
2018-10-15T02:49:25.446Z,14.17
2018-10-15T02:50:25.713Z,14.15
2018-10-15T02:51:25.704Z,13.97
2018-10-15T02:52:25.459Z,14.11
2018-10-15T02:53:25.765Z,14.03
2018-10-15T02:54:25.724Z,14.03
2018-10-15T02:55:25.474Z,14.08
2018-10-15T02:56:25.737Z,13.97
2018-10-15T02:57:25.735Z,14.07
2018-10-15T02:58:25.496Z,14.12
2018-10-15T02:59:25.746Z,14
2018-10-15T03:00:25.754Z,14.08
2018-10-15T03:01:25.791Z,13.92
2018-10-15T03:02:25.512Z,14.04
2018-10-15T03:03:25.512Z,14.03
2018-10-15T03:04:25.777Z,13.97
2018-10-15T03:05:25.523Z,13.99
2018-10-15T03:06:25.780Z,13.9
2018-10-15T03:07:25.797Z,13.95
2018-10-15T03:08:26.603Z,13.99
2018-10-15T03:09:25.792Z,13.86
2018-10-15T03:10:25.803Z,13.89
2018-10-15T03:11:25.567Z,13.9
2018-10-15T03:12:25.808Z,13.89
2018-10-15T03:13:25.834Z,13.85
2018-10-15T03:14:25.827Z,13.86
2018-10-15T03:15:25.577Z,13.86
2018-10-15T03:16:25.833Z,13.9
2018-10-15T03:17:25.853Z,13.79
2018-10-15T03:18:25.834Z,13.86
2018-10-15T03:19:25.587Z,13.81
2018-10-15T03:20:25.997Z,13.79
2018-10-15T03:21:25.867Z,13.85
2018-10-15T03:22:25.876Z,13.83
2018-10-15T03:23:26.135Z,13.86
2018-10-15T03:24:25.372Z,13.87
2018-10-15T03:25:25.873Z,13.85
2018-10-15T03:26:25.874Z,13.75
2018-10-15T03:27:25.373Z,13.79
2018-10-15T03:28:25.993Z,13.79
2018-10-15T03:29:25.886Z,13.79
2018-10-15T03:30:25.637Z,13.87
2018-10-15T03:31:25.935Z,13.81
2018-10-15T03:32:25.909Z,13.83
2018-10-15T03:33:25.899Z,13.86
2018-10-15T03:34:25.908Z,13.85
2018-10-15T03:35:25.662Z,13.87
2018-10-15T03:36:25.928Z,13.75
2018-10-15T03:37:25.929Z,13.75
2018-10-15T03:38:26.008Z,13.72
2018-10-15T03:39:25.693Z,13.7
2018-10-15T03:40:25.714Z,13.68
2018-10-15T03:41:25.699Z,13.67
2018-10-15T03:42:25.963Z,13.71
2018-10-15T03:43:25.719Z,13.7
2018-10-15T03:44:25.972Z,13.6
2018-10-15T03:45:25.975Z,13.68
2018-10-15T03:46:25.992Z,13.67
2018-10-15T03:47:25.981Z,13.62
2018-10-15T03:48:25.782Z,13.65
2018-10-15T03:49:25.989Z,13.68
2018-10-15T03:50:25.993Z,13.65
2018-10-15T03:51:25.771Z,13.71
2018-10-15T03:52:25.752Z,13.67
2018-10-15T03:53:26.020Z,13.67
2018-10-15T03:54:26.019Z,13.65
2018-10-15T03:55:26.021Z,13.67
2018-10-15T03:56:26.039Z,13.63
2018-10-15T03:57:26.055Z,13.65
2018-10-15T03:58:26.032Z,13.6
2018-10-15T03:59:26.044Z,13.67
2018-10-15T04:00:25.853Z,13.71
2018-10-15T04:01:26.054Z,13.63
2018-10-15T04:02:26.484Z,13.67
2018-10-15T04:03:26.107Z,13.74
2018-10-15T04:04:26.071Z,13.72
2018-10-15T04:05:26.067Z,13.68
2018-10-15T04:06:26.075Z,13.65
2018-10-15T04:07:25.826Z,13.68
2018-10-15T04:08:26.227Z,13.65
2018-10-15T04:09:25.843Z,13.77
2018-10-15T04:10:26.093Z,13.7
2018-10-15T04:11:26.094Z,13.67
2018-10-15T04:12:26.100Z,13.6
2018-10-15T04:13:26.211Z,13.62
2018-10-15T04:14:26.368Z,13.65
2018-10-15T04:15:26.128Z,13.6
2018-10-15T04:16:26.123Z,13.56
2018-10-15T04:17:26.127Z,13.56
2018-10-15T04:18:25.936Z,13.62
2018-10-15T04:19:26.134Z,13.59
2018-10-15T04:20:25.907Z,13.62
2018-10-15T04:21:26.145Z,13.56
2018-10-15T04:22:26.152Z,13.47
2018-10-15T04:23:26.162Z,13.49
2018-10-15T04:24:26.158Z,13.46
2018-10-15T04:25:26.169Z,13.49
2018-10-15T04:26:26.166Z,13.46
2018-10-15T04:27:26.167Z,13.42
2018-10-15T04:28:26.181Z,13.35
2018-10-15T04:29:26.184Z,13.39
2018-10-15T04:30:25.931Z,13.33
2018-10-15T04:31:25.940Z,13.38
2018-10-15T04:32:25.687Z,13.27
2018-10-15T04:33:26.250Z,13.25
2018-10-15T04:34:26.202Z,13.35
2018-10-15T04:35:26.223Z,13.28
2018-10-15T04:36:25.955Z,13.31
2018-10-15T04:37:25.960Z,13.27
2018-10-15T04:38:26.223Z,13.22
2018-10-15T04:39:26.236Z,13.33
2018-10-15T04:40:25.980Z,13.38
2018-10-15T04:41:26.238Z,13.31
2018-10-15T04:42:25.989Z,13.28
2018-10-15T04:43:26.249Z,13.3
2018-10-15T04:44:26.028Z,13.28
2018-10-15T04:45:26.262Z,13.25
2018-10-15T04:46:26.270Z,13.33
2018-10-15T04:47:26.313Z,13.35
2018-10-15T04:48:26.319Z,13.28
2018-10-15T04:49:27.043Z,13.28
2018-10-15T04:50:26.281Z,13.33
2018-10-15T04:51:26.287Z,13.22
2018-10-15T04:52:26.039Z,13.27
2018-10-15T04:53:26.303Z,13.27
2018-10-15T04:54:26.303Z,13.33
2018-10-15T04:55:26.290Z,13.25
2018-10-15T04:56:26.299Z,13.3
2018-10-15T04:57:26.301Z,13.23
2018-10-15T04:58:26.306Z,13.15
2018-10-15T04:59:26.074Z,13.25
2018-10-15T05:00:25.938Z,13.13
2018-10-15T05:01:26.346Z,13.22
2018-10-15T05:02:26.397Z,13.13
2018-10-15T05:03:26.389Z,13.2
2018-10-15T05:04:26.335Z,13.15
2018-10-15T05:05:26.088Z,13.2
2018-10-15T05:06:26.750Z,13.11
2018-10-15T05:07:26.358Z,13.11
2018-10-15T05:08:26.111Z,13.12
2018-10-15T05:09:26.555Z,13.16
2018-10-15T05:10:26.390Z,13.15
2018-10-15T05:11:26.121Z,13.11
2018-10-15T05:12:26.745Z,13.05
2018-10-15T05:13:26.379Z,13.13
2018-10-15T05:14:26.399Z,13.09
2018-10-15T05:15:26.391Z,12.98
2018-10-15T05:16:26.385Z,13.01
2018-10-15T05:17:26.140Z,13.03
2018-10-15T05:18:26.431Z,13.11
2018-10-15T05:19:26.143Z,13.12
2018-10-15T05:20:26.154Z,13.12
2018-10-15T05:21:27.268Z,13.09
2018-10-15T05:22:26.409Z,13.09
2018-10-15T05:23:26.417Z,13.13
2018-10-15T05:24:26.503Z,13.2
2018-10-15T05:25:26.433Z,13.15
2018-10-15T05:26:26.438Z,13.05
2018-10-15T05:27:26.434Z,13.08
2018-10-15T05:28:26.457Z,13.04
2018-10-15T05:29:26.458Z,13.09
2018-10-15T05:30:27.087Z,13.01
2018-10-15T05:31:26.213Z,13.09
2018-10-15T05:32:26.472Z,13.09
2018-10-15T05:33:26.528Z,13.01
2018-10-15T05:34:26.477Z,13.08
2018-10-15T05:35:26.488Z,13.09
2018-10-15T05:36:26.239Z,13.16
2018-10-15T05:37:26.487Z,13.08
2018-10-15T05:38:26.239Z,13.11
2018-10-15T05:39:26.496Z,13.04
2018-10-15T05:40:26.501Z,13.05
2018-10-15T05:41:26.506Z,13.03
2018-10-15T05:42:26.401Z,13.05
2018-10-15T05:43:26.527Z,12.95
2018-10-15T05:44:26.530Z,13.04
2018-10-15T05:45:26.530Z,13
2018-10-15T05:46:26.671Z,13.03
2018-10-15T05:47:26.541Z,13
2018-10-15T05:48:26.743Z,13.04
2018-10-15T05:49:26.293Z,13.05
2018-10-15T05:50:26.562Z,13.18
2018-10-15T05:51:26.554Z,13.15
2018-10-15T05:52:26.561Z,13.22
2018-10-15T05:53:26.315Z,13.05
2018-10-15T05:54:26.461Z,13.19
2018-10-15T05:55:26.574Z,13.19
2018-10-15T05:56:26.579Z,13.15
2018-10-15T05:57:26.334Z,13.12
2018-10-15T05:58:26.576Z,13.15
2018-10-15T05:59:26.581Z,13.22
2018-10-15T06:00:26.501Z,13.08
2018-10-15T06:01:26.344Z,13.2
2018-10-15T06:02:26.606Z,13.25
2018-10-15T06:03:26.660Z,13.18
2018-10-15T06:04:26.351Z,13.25
2018-10-15T06:05:26.613Z,13.28
2018-10-15T06:06:26.781Z,13.33
2018-10-15T06:07:26.649Z,13.3
2018-10-15T06:08:26.380Z,13.31
2018-10-15T06:09:26.643Z,13.28
2018-10-15T06:10:26.397Z,13.28
2018-10-15T06:11:26.653Z,13.33
2018-10-15T06:12:27.107Z,13.38
2018-10-15T06:13:27.057Z,13.3
2018-10-15T06:14:26.673Z,13.31
2018-10-15T06:15:26.417Z,13.33
2018-10-15T06:16:26.678Z,13.33
2018-10-15T06:17:26.665Z,13.33
2018-10-15T06:18:26.908Z,13.44
2018-10-15T06:19:26.429Z,13.39
2018-10-15T06:20:26.432Z,13.41
2018-10-15T06:21:26.696Z,13.41
2018-10-15T06:22:26.436Z,13.49
2018-10-15T06:23:26.443Z,13.49
2018-10-15T06:24:26.455Z,13.49
2018-10-15T06:25:26.703Z,13.52
2018-10-15T06:26:26.457Z,13.63
2018-10-15T06:27:26.721Z,13.59
2018-10-15T06:28:26.965Z,13.59
2018-10-15T06:29:26.474Z,13.6
2018-10-15T06:30:27.161Z,13.59
2018-10-15T06:31:26.747Z,13.67
2018-10-15T06:32:26.739Z,13.65
2018-10-15T06:33:26.790Z,13.7
2018-10-15T06:34:26.755Z,13.68
2018-10-15T06:35:26.504Z,13.78
2018-10-15T06:36:26.874Z,13.74
2018-10-15T06:37:27.194Z,13.79
2018-10-15T06:38:27.025Z,13.81
2018-10-15T06:39:26.739Z,13.83
2018-10-15T06:40:26.270Z,13.95
2018-10-15T06:41:26.880Z,13.81
2018-10-15T06:42:26.538Z,13.86
2018-10-15T06:43:26.560Z,13.89
2018-10-15T06:44:26.638Z,13.99
2018-10-15T06:45:27.361Z,14.05
2018-10-15T06:46:27.069Z,14.11
2018-10-15T06:47:27.166Z,14.14
2018-10-15T06:48:26.879Z,14.23
2018-10-15T06:49:26.772Z,14.22
2018-10-15T06:50:26.829Z,14.33
2018-10-15T06:51:26.984Z,14.36
2018-10-15T06:52:26.833Z,14.41
2018-10-15T06:53:27.142Z,14.55
2018-10-15T06:54:26.336Z,14.55
2018-10-15T06:55:26.850Z,14.48
2018-10-15T06:56:26.859Z,14.58
2018-10-15T06:57:26.704Z,14.62
2018-10-15T06:58:26.872Z,14.72
2018-10-15T06:59:27.212Z,14.65
2018-10-15T07:00:27.222Z,14.81
2018-10-15T07:01:27.053Z,14.78
2018-10-15T07:02:27.037Z,14.84
2018-10-15T07:03:27.362Z,14.85
2018-10-15T07:04:27.197Z,14.89
2018-10-15T07:05:26.397Z,14.94
2018-10-15T07:06:26.917Z,14.91
2018-10-15T07:07:27.417Z,14.96
2018-10-15T07:08:26.981Z,15.07
2018-10-15T07:09:26.680Z,15.11
2018-10-15T07:10:27.309Z,15.17
2018-10-15T07:11:26.986Z,15.21
2018-10-15T07:12:27.010Z,15.31
2018-10-15T07:13:26.845Z,15.35
2018-10-15T07:14:26.909Z,15.42
2018-10-15T07:15:26.448Z,15.4
2018-10-15T07:16:27.273Z,15.52
2018-10-15T07:17:26.963Z,15.55
2018-10-15T07:18:26.714Z,15.57
2018-10-15T07:19:27.093Z,15.58
2018-10-15T07:20:27.437Z,15.7
2018-10-15T07:21:27.003Z,15.67
2018-10-15T07:22:27.174Z,15.75
2018-10-15T07:23:27.040Z,15.86
2018-10-15T07:24:27.271Z,15.91
2018-10-15T07:25:26.767Z,15.95
2018-10-15T07:26:26.780Z,15.98
2018-10-15T07:27:26.774Z,16.01
2018-10-15T07:28:26.976Z,16.08
2018-10-15T07:29:26.789Z,16.21
2018-10-15T07:30:26.924Z,16.2
2018-10-15T07:31:26.804Z,16.17
2018-10-15T07:32:26.553Z,16.32
2018-10-15T07:33:27.179Z,16.41
2018-10-15T07:34:26.997Z,16.39
2018-10-15T07:35:26.825Z,16.46
2018-10-15T07:36:27.258Z,16.56
2018-10-15T07:37:27.090Z,16.54
2018-10-15T07:38:27.283Z,16.66
2018-10-15T07:39:27.227Z,16.75
2018-10-15T07:40:27.462Z,16.76
2018-10-15T07:41:27.125Z,16.76
2018-10-15T07:42:27.314Z,16.81
2018-10-15T07:43:27.133Z,16.91
2018-10-15T07:44:27.467Z,16.93
2018-10-15T07:45:27.143Z,16.97
2018-10-15T07:46:27.701Z,17.08
2018-10-15T07:47:27.240Z,17.08
2018-10-15T07:48:27.064Z,17.11
2018-10-15T07:49:26.916Z,17.15
2018-10-15T07:50:27.381Z,17.15
2018-10-15T07:51:26.928Z,17.23
2018-10-15T07:52:27.338Z,17.36
2018-10-15T07:53:27.524Z,17.31
2018-10-15T07:54:27.130Z,17.36
2018-10-15T07:55:27.199Z,17.36
2018-10-15T07:56:27.439Z,17.41
2018-10-15T07:57:26.970Z,17.48
2018-10-15T07:58:27.109Z,17.63
2018-10-15T07:59:26.730Z,17.64
2018-10-15T08:00:27.572Z,17.65
2018-10-15T08:01:27.274Z,17.74
2018-10-15T08:02:27.115Z,17.76
2018-10-15T08:03:27.279Z,17.9
2018-10-15T08:04:27.673Z,17.87
2018-10-15T08:05:27.152Z,17.98
2018-10-15T08:06:27.381Z,18.13
2018-10-15T08:07:27.033Z,18.1
2018-10-15T08:08:27.895Z,18.18
2018-10-15T08:09:27.310Z,18.23
2018-10-15T08:10:27.774Z,18.34
2018-10-15T08:11:27.168Z,18.4
2018-10-15T08:12:27.080Z,18.37
2018-10-15T08:13:27.087Z,18.45
2018-10-15T08:14:27.678Z,18.41
2018-10-15T08:15:27.969Z,18.49
2018-10-15T08:16:27.567Z,18.52
2018-10-15T08:17:27.368Z,18.63
2018-10-15T08:18:27.425Z,18.75
2018-10-15T08:19:27.144Z,18.8
2018-10-15T08:20:27.582Z,18.86
2018-10-15T08:21:27.149Z,18.98
2018-10-15T08:22:27.570Z,18.96
2018-10-15T08:23:27.213Z,19.04
2018-10-15T08:24:27.422Z,19.14
2018-10-15T08:25:27.446Z,19.14
2018-10-15T08:26:27.189Z,19.19
2018-10-15T08:27:27.190Z,19.27
2018-10-15T08:28:27.377Z,19.41
2018-10-15T08:29:27.465Z,19.44
2018-10-15T08:30:27.220Z,19.55
2018-10-15T08:31:27.223Z,19.62
2018-10-15T08:32:27.231Z,19.62
2018-10-15T08:33:27.237Z,19.69
2018-10-15T08:34:27.596Z,19.81
2018-10-15T08:35:27.067Z,19.85
2018-10-15T08:36:27.269Z,19.92
2018-10-15T08:37:27.260Z,19.91
2018-10-15T08:38:27.621Z,20.07
2018-10-15T08:39:27.530Z,20.14
2018-10-15T08:40:27.042Z,20.14
2018-10-15T08:41:27.423Z,20.24
2018-10-15T08:42:27.336Z,20.22
2018-10-15T08:43:27.332Z,20.31
2018-10-15T08:44:27.080Z,20.37
2018-10-15T08:45:27.602Z,20.48
2018-10-15T08:46:27.362Z,20.56
2018-10-15T08:47:27.618Z,20.6
2018-10-15T08:48:27.713Z,20.55
2018-10-15T08:49:27.640Z,20.74
2018-10-15T08:50:27.809Z,20.75
2018-10-15T08:51:27.383Z,20.84
2018-10-15T08:52:27.475Z,20.9
2018-10-15T08:53:27.471Z,20.85
2018-10-15T08:54:27.565Z,20.99
2018-10-15T08:55:27.175Z,21.02
2018-10-15T08:56:27.439Z,21.05
2018-10-15T08:57:27.449Z,21.06
2018-10-15T08:58:27.715Z,21.17
2018-10-15T08:59:27.755Z,21.29
2018-10-15T09:00:27.474Z,21.29
2018-10-15T09:01:27.739Z,21.51
2018-10-15T09:02:27.238Z,21.5
2018-10-15T09:03:27.806Z,21.54
2018-10-15T09:04:27.766Z,21.66
2018-10-15T09:05:27.523Z,21.52
2018-10-15T09:06:27.702Z,21.67
2018-10-15T09:07:27.729Z,21.67
2018-10-15T09:08:28.245Z,21.75
2018-10-15T09:09:28.617Z,21.79
2018-10-15T09:10:27.810Z,21.8
2018-10-15T09:11:27.817Z,21.8
2018-10-15T09:12:28.282Z,21.89
2018-10-15T09:13:27.985Z,21.91
2018-10-15T09:14:27.971Z,21.98
2018-10-15T09:15:27.604Z,22
2018-10-15T09:16:27.871Z,22.08
2018-10-15T09:17:27.874Z,22.13
2018-10-15T09:18:27.782Z,22.17
2018-10-15T09:19:27.642Z,22.25
2018-10-15T09:20:27.474Z,22.25
2018-10-15T09:21:28.259Z,22.32
2018-10-15T09:22:27.678Z,22.3
2018-10-15T09:23:27.701Z,22.33
2018-10-15T09:24:27.965Z,22.43
2018-10-15T09:25:27.711Z,22.54
2018-10-15T09:26:27.728Z,22.63
2018-10-15T09:27:28.055Z,22.76
2018-10-15T09:28:28.093Z,22.72
2018-10-15T09:29:27.745Z,22.78
2018-10-15T09:30:28.010Z,22.84
2018-10-15T09:31:28.427Z,22.8
2018-10-15T09:32:28.036Z,22.85
2018-10-15T09:33:28.358Z,22.9
2018-10-15T09:34:27.547Z,22.85
2018-10-15T09:35:28.515Z,23
2018-10-15T09:36:27.817Z,22.94
2018-10-15T09:37:28.095Z,23.05
2018-10-15T09:38:27.940Z,23.08
2018-10-15T09:39:27.851Z,23.21
2018-10-15T09:40:28.114Z,23.31
2018-10-15T09:41:28.030Z,23.25
2018-10-15T09:42:28.128Z,23.28
2018-10-15T09:43:27.937Z,23.24
2018-10-15T09:44:28.156Z,23.27
2018-10-15T09:45:27.926Z,23.31
2018-10-15T09:46:28.181Z,23.44
2018-10-15T09:47:27.934Z,23.48
2018-10-15T09:48:27.692Z,23.59
2018-10-15T09:49:27.951Z,23.63
2018-10-15T09:50:28.006Z,23.71
2018-10-15T09:51:27.969Z,23.61
2018-10-15T09:52:28.242Z,23.76
2018-10-15T09:53:28.714Z,23.77
2018-10-15T09:54:28.003Z,23.83
2018-10-15T09:55:28.269Z,23.81
2018-10-15T09:56:28.281Z,23.96
2018-10-15T09:57:28.286Z,24.01
2018-10-15T09:58:28.048Z,23.87
2018-10-15T09:59:28.319Z,23.96
2018-10-15T10:00:28.069Z,23.96
2018-10-15T10:01:28.084Z,24.1
2018-10-15T10:02:28.328Z,24.16
2018-10-15T10:03:28.343Z,24.4
2018-10-15T10:04:28.103Z,24.65
2018-10-15T10:05:28.382Z,25.07
2018-10-15T10:06:28.140Z,25.46
2018-10-15T10:07:28.348Z,25.87
2018-10-15T10:08:28.211Z,26.25
2018-10-15T10:09:28.422Z,26.65
2018-10-15T10:10:28.197Z,26.9
2018-10-15T10:11:28.198Z,27.17
2018-10-15T10:12:28.197Z,27.36
2018-10-15T10:13:28.461Z,27.67
2018-10-15T10:14:28.735Z,27.9
2018-10-15T10:15:28.492Z,28.14
2018-10-15T10:16:28.249Z,28.52
2018-10-15T10:17:29.126Z,28.67
2018-10-15T10:18:29.089Z,29.04
2018-10-15T10:19:28.577Z,29.19
2018-10-15T10:20:28.577Z,29.31
2018-10-15T10:21:28.589Z,29.45
2018-10-15T10:22:28.983Z,29.61
2018-10-15T10:23:28.662Z,29.82
2018-10-15T10:24:28.638Z,30.21
2018-10-15T10:25:28.650Z,30.47
2018-10-15T10:26:28.411Z,30.69
2018-10-15T10:27:29.107Z,30.96
2018-10-15T10:28:29.051Z,31.17
2018-10-15T10:29:28.834Z,31.56
2018-10-15T10:30:28.736Z,31.73
2018-10-15T10:31:28.496Z,32.07
2018-10-15T10:32:28.775Z,32.23
2018-10-15T10:33:28.903Z,32.33
2018-10-15T10:34:28.297Z,32.34
2018-10-15T10:35:29.005Z,32.41
2018-10-15T10:36:28.833Z,32.49
2018-10-15T10:37:28.859Z,32.56
2018-10-15T10:38:28.998Z,32.86
2018-10-15T10:39:28.888Z,33.15
2018-10-15T10:40:28.937Z,33.47
2018-10-15T10:41:28.935Z,33.67
2018-10-15T10:42:28.697Z,33.79
2018-10-15T10:43:28.969Z,33.98
2018-10-15T10:44:28.735Z,34.01
2018-10-15T10:45:29.247Z,34.01
2018-10-15T10:46:28.779Z,34.35
2018-10-15T10:47:29.159Z,34.33
2018-10-15T10:48:29.069Z,34.48
2018-10-15T10:49:29.098Z,34.62
2018-10-15T10:50:29.110Z,34.83
2018-10-15T10:51:28.877Z,34.83
2018-10-15T10:52:28.894Z,35.04
2018-10-15T10:53:29.223Z,35.3
2018-10-15T10:54:29.187Z,35.46
2018-10-15T10:55:29.203Z,35.58
2018-10-15T10:56:29.220Z,35.63
2018-10-15T10:57:29.352Z,35.67
2018-10-15T10:58:29.366Z,35.66
2018-10-15T10:59:29.539Z,35.74
2018-10-15T11:00:29.349Z,35.82
2018-10-15T11:01:29.334Z,35.9
2018-10-15T11:02:29.285Z,36.16
2018-10-15T11:03:29.375Z,36.3
2018-10-15T11:04:28.899Z,36.43
2018-10-15T11:05:29.510Z,36.55
2018-10-15T11:06:29.448Z,36.88
2018-10-15T11:07:29.470Z,37.02
2018-10-15T11:08:29.458Z,37.11
2018-10-15T11:09:29.262Z,37.06
2018-10-15T11:10:29.285Z,37.07
2018-10-15T11:11:29.310Z,37.17
2018-10-15T11:12:29.590Z,37.08
2018-10-15T11:13:29.681Z,37.26
2018-10-15T11:14:29.627Z,37.49
2018-10-15T11:15:29.650Z,37.68
2018-10-15T11:16:29.414Z,37.64
2018-10-15T11:17:29.698Z,37.67
2018-10-15T11:18:30.050Z,38.12
2018-10-15T11:19:29.739Z,38.26
2018-10-15T11:20:29.517Z,38.38
2018-10-15T11:21:29.783Z,38.34
2018-10-15T11:22:29.715Z,38.48
2018-10-15T11:23:29.844Z,38.43
2018-10-15T11:24:29.858Z,38.31
2018-10-15T11:25:29.892Z,38.48
2018-10-15T11:26:29.913Z,38.55
2018-10-15T11:27:29.940Z,38.55
2018-10-15T11:28:29.810Z,38.55
2018-10-15T11:29:30.031Z,38.82
2018-10-15T11:30:30.028Z,38.86
2018-10-15T11:31:30.035Z,38.97
2018-10-15T11:32:29.804Z,38.84
2018-10-15T11:33:29.834Z,38.58
2018-10-15T11:34:30.248Z,38.79
2018-10-15T11:35:29.878Z,38.89
2018-10-15T11:36:29.905Z,38.83
2018-10-15T11:37:30.185Z,38.77
2018-10-15T11:38:30.959Z,38.82
2018-10-15T11:39:30.236Z,38.65
2018-10-15T11:40:30.256Z,38.79
2018-10-15T11:41:30.278Z,39.07
2018-10-15T11:42:30.308Z,39
2018-10-15T11:43:30.283Z,39.18
2018-10-15T11:44:30.102Z,39.33
2018-10-15T11:45:30.125Z,39.53
2018-10-15T11:46:30.542Z,39.49
2018-10-15T11:47:30.186Z,39.62
2018-10-15T11:48:30.501Z,39.78
2018-10-15T11:49:30.478Z,39.63
2018-10-15T11:50:30.498Z,39.63
2018-10-15T11:51:30.955Z,39.7
2018-10-15T11:52:30.298Z,40
2018-10-15T11:53:30.436Z,39.85
2018-10-15T11:54:30.598Z,39.71
2018-10-15T11:55:30.628Z,39.83
2018-10-15T11:56:30.398Z,40.09
2018-10-15T11:57:30.681Z,40.02
2018-10-15T11:58:30.725Z,39.83
2018-10-15T11:59:30.624Z,40.09
2018-10-15T12:00:30.507Z,40.16
2018-10-15T12:01:30.780Z,40.27
2018-10-15T12:02:30.948Z,40.15
2018-10-15T12:03:30.875Z,39.89
2018-10-15T12:04:30.860Z,39.87
2018-10-15T12:05:30.626Z,39.93
2018-10-15T12:06:30.905Z,40.11
2018-10-15T12:07:30.429Z,40.12
2018-10-15T12:08:30.715Z,40.31
2018-10-15T12:09:30.979Z,40.35
2018-10-15T12:10:31.003Z,40.06
2018-10-15T12:11:31.032Z,40.02
2018-10-15T12:12:31.057Z,40.12
2018-10-15T12:13:31.078Z,40.2
2018-10-15T12:14:30.853Z,40.47
2018-10-15T12:15:31.139Z,40.59
2018-10-15T12:16:31.170Z,40.62
2018-10-15T12:17:30.935Z,40.5
2018-10-15T12:18:31.271Z,40.56
2018-10-15T12:19:31.238Z,40.81
2018-10-15T12:20:31.268Z,40.78
2018-10-15T12:21:31.295Z,40.85
2018-10-15T12:22:31.448Z,40.87
2018-10-15T12:23:31.089Z,40.96
2018-10-15T12:24:30.861Z,41.26
2018-10-15T12:25:31.398Z,41.45
2018-10-15T12:26:31.165Z,41.26
2018-10-15T12:27:31.447Z,40.99
2018-10-15T12:28:31.219Z,40.8
2018-10-15T12:29:31.525Z,40.75
2018-10-15T12:30:31.520Z,40.75
2018-10-15T12:31:31.560Z,40.77
2018-10-15T12:32:31.322Z,40.28
2018-10-15T12:33:31.655Z,39.89
2018-10-15T12:34:31.626Z,39.63
2018-10-15T12:35:31.399Z,39.21
2018-10-15T12:36:31.425Z,38.8
2018-10-15T12:37:31.219Z,38.77
2018-10-15T12:38:31.741Z,39.07
2018-10-15T12:39:31.775Z,39.34
2018-10-15T12:40:31.783Z,39.67
2018-10-15T12:41:31.662Z,39.81
2018-10-15T12:42:31.576Z,39.8
2018-10-15T12:43:31.855Z,39.8
2018-10-15T12:44:31.639Z,39.83
2018-10-15T12:45:31.663Z,39.67
2018-10-15T12:46:31.678Z,39.78
2018-10-15T12:47:32.212Z,39.87
2018-10-15T12:48:31.988Z,40.12
2018-10-15T12:49:32.016Z,40.34
2018-10-15T12:50:31.791Z,40.38
2018-10-15T12:51:32.070Z,39.99
2018-10-15T12:52:32.084Z,39.8
2018-10-15T12:53:33.531Z,39.67
2018-10-15T12:54:32.137Z,39.68
2018-10-15T12:55:31.908Z,39.86